Latest Weather Observations for Canterbury

IDN60901

Issued at 6:51 pm EDT Wednesday 25 November 2020 (issued every 10 minutes, with the page automatically refreshed every 10 minutes)

About weather observations | Map of Sydney area stations | Latest observations for Sydney area | Other Formats
Station Details ID: 066194 Name: CANTERBURY RACECOURSE AWS Lat: -33.91 Lon: 151.11 Height: 3.0 m
Data from the previous 72 hours. | See also: Recent months at Canterbury
Date/Time
EDT
Temp
°C
App
Temp
°C
Dew
Point
°C
Rel
Hum
%
Delta-T
°C
Wind Press
QNH
hPa
Press
MSL
hPa
Rain since
9am
mm
Dir  Spd
km/h
Gust
km/h
Spd
kts
Gust
kts
25/06:30pm 21.6 18.3 12.7 57 5.1 ENE 22 32 12 17 - - 0.0
25/06:00pm 22.1 19.3 13.2 57 5.1 ENE 20 33 11 18 - - 0.0
25/05:30pm 22.1 18.2 12.1 53 5.6 ENE 24 33 13 18 - - 0.0
25/05:00pm 22.7 19.7 13.7 56 5.2 ENE 22 30 12 16 - - 0.0
25/04:30pm 22.7 19.9 13.2 55 5.5 ENE 20 28 11 15 - - 0.0
25/04:00pm 23.2 21.1 13.7 55 5.5 ENE 17 28 9 15 - - 0.0
25/03:30pm 23.3 21.3 13.8 55 5.5 ENE 17 28 9 15 - - 0.0
25/03:00pm 23.4 21.6 14.4 57 5.3 ENE 17 30 9 16 - - 0.0
25/02:30pm 23.4 22.4 15.5 61 4.7 NE 15 24 8 13 - - 0.0
25/02:00pm 22.6 20.7 15.2 63 4.4 NNE 19 24 10 13 - - 0.0
25/01:30pm 23.2 22.4 15.0 60 4.9 NE 13 20 7 11 - - 0.0
25/01:00pm 21.8 21.6 14.7 64 4.2 SSE 9 15 5 8 - - 0.0
25/12:30pm 20.7 20.2 15.0 70 3.4 SSE 11 17 6 9 - - 0.0
25/12:00pm 21.5 21.4 16.0 71 3.3 SSE 11 19 6 10 - - 0.0
25/11:30am 21.2 21.2 15.1 68 3.6 SSE 9 17 5 9 - - 0.0
25/11:00am 21.4 21.4 14.1 63 4.2 NE 7 9 4 5 - - 0.0
25/10:30am 21.0 21.1 14.4 66 3.9 ENE 7 13 4 7 - - 0.0
25/10:00am 20.5 20.1 14.2 67 3.7 NE 9 13 5 7 - - 0.0
25/09:30am 20.4 20.1 14.5 69 3.4 N 9 13 5 7 - - 0.0
25/09:00am 20.0 20.2 14.6 71 3.1 NNW 7 13 4 7 - - 0.8
25/08:30am 19.4 20.0 15.3 77 2.4 WNW 6 11 3 6 - - 0.8
25/08:00am 19.0 20.4 15.5 80 2.1 NW 2 7 1 4 - - 0.8
25/07:30am 18.3 20.2 15.7 85 1.5 CALM 0 0 0 0 - - 0.8
25/07:00am 17.7 19.7 15.9 89 1.1 CALM 0 0 0 0 - - 0.8
25/06:30am 17.2 17.9 15.5 90 1.0 WSW 6 7 3 4 - - 0.8
25/06:00am 16.9 17.8 15.2 90 1.0 WSW 4 7 2 4 - - 0.8
25/05:30am 16.7 17.1 14.7 88 1.1 S 6 7 3 4 - - 0.8
25/05:00am 17.1 17.6 14.9 87 1.3 SSW 6 9 3 5 - - 0.8
25/04:30am 16.9 18.3 15.4 91 0.9 S 2 6 1 3 - - 0.8
25/04:00am 16.7 18.1 14.3 86 1.4 CALM 0 6 0 3 - - 0.6
25/03:30am 17.7 16.5 14.0 79 2.1 E 13 20 7 11 - - 0.0
25/03:00am 18.6 19.0 15.3 81 1.9 S 7 13 4 7 - - 0.0
25/02:30am 18.8 19.3 14.9 78 2.3 S 6 11 3 6 - - 0.0
25/02:00am 18.8 19.6 14.9 78 2.3 S 4 7 2 4 - - 0.0
25/01:30am 18.9 19.3 14.8 77 2.4 SSE 6 9 3 5 - - 0.0
25/01:00am 18.9 18.7 14.8 77 2.4 SSE 9 15 5 8 - - 0.0
25/12:30am 19.1 19.3 14.8 76 2.5 SSE 7 11 4 6 - - 0.0
25/12:00am 19.1 18.9 14.6 75 2.6 SE 9 15 5 8 - - 0.0
 
Date/Time
EDT
Temp
°C
App
Temp
°C
Dew
Point
°C
Rel
Hum
%
Delta-T
°C
Wind Press
QNH
hPa
Press
MSL
hPa
Rain since
9am
mm
Dir  Spd
km/h
Gust
km/h
Spd
kts
Gust
kts
24/11:30pm 19.2 19.2 15.1 77 2.4 SSE 9 15 5 8 - - 0.0
24/11:00pm 19.1 18.9 14.8 76 2.5 SE 9 17 5 9 - - 0.0
24/10:30pm 19.1 18.1 14.6 75 2.6 SE 13 22 7 12 - - 0.0
24/10:00pm 19.1 17.8 14.8 76 2.5 SE 15 20 8 11 - - 0.0
24/09:30pm 19.3 17.9 14.6 74 2.7 SE 15 24 8 13 - - 0.0
24/09:00pm 19.4 18.6 15.1 76 2.5 SSE 13 20 7 11 - - 0.0
24/08:30pm 19.0 17.2 14.5 75 2.6 SE 17 22 9 12 - - 0.0
24/08:00pm 19.2 17.9 14.7 75 2.6 SSE 15 24 8 13 - - 0.0
24/07:30pm 19.4 17.7 14.6 74 2.8 SE 17 26 9 14 - - 0.0
24/07:00pm 19.6 17.5 14.6 73 2.9 SE 19 28 10 15 - - 0.0
24/06:30pm 19.7 17.3 14.3 71 3.1 SE 20 28 11 15 - - 0.0
24/06:00pm 20.2 17.9 14.1 68 3.5 SSE 19 28 10 15 - - 0.0
24/05:30pm 20.5 17.6 13.9 66 3.8 SE 22 33 12 18 - - 0.0
24/05:00pm 20.2 17.3 13.9 67 3.6 SE 22 35 12 19 - - 0.0
24/04:30pm 20.9 17.9 13.6 63 4.2 SE 22 39 12 21 - - 0.0
24/04:00pm 21.4 18.4 13.8 62 4.4 SE 22 33 12 18 - - 0.0
24/03:30pm 21.3 17.4 13.2 60 4.6 SE 26 37 14 20 - - 0.0
24/03:00pm 21.4 16.7 13.1 59 4.7 SE 30 39 16 21 - - 0.0
24/02:30pm 22.3 18.9 13.6 58 5.0 SSE 24 35 13 19 - - 0.0
24/02:00pm 21.6 17.0 12.2 55 5.3 SE 28 39 15 21 - - 0.0
24/01:30pm 22.0 17.4 12.3 54 5.5 SE 28 39 15 21 - - 0.0
24/01:00pm 22.1 18.4 11.5 51 5.9 SSE 22 35 12 19 - - 0.0
24/12:30pm 21.7 18.3 11.4 52 5.7 SE 20 33 11 18 - - 0.0
24/12:00pm 21.8 18.6 11.8 53 5.6 SSE 20 30 11 16 - - 0.0
24/11:30am 21.2 17.3 12.1 56 5.1 S 24 39 13 21 - - 0.0
24/11:00am 21.3 17.7 11.9 55 5.3 S 22 33 12 18 - - 0.0
24/10:30am 21.0 17.5 10.8 52 5.6 S 20 35 11 19 - - 0.0
24/10:00am 20.9 17.4 12.1 57 4.9 SSE 22 35 12 19 - - 0.0
24/09:30am 20.6 16.9 12.8 61 4.4 S 24 41 13 22 - - 0.0
24/09:00am 20.4 18.1 14.1 67 3.6 S 19 30 10 16 - - 1.2
24/08:30am 18.6 17.2 14.5 77 2.4 S 15 22 8 12 - - 1.2
24/08:00am 19.3 17.6 14.6 74 2.7 SSE 17 24 9 13 - - 1.2
24/07:30am 19.1 17.7 14.4 74 2.7 S 15 22 8 12 - - 1.2
24/07:00am 18.5 18.3 14.8 79 2.1 S 9 19 5 10 - - 1.2
24/06:30am 18.3 17.9 14.2 77 2.4 SSW 9 17 5 9 - - 1.2
24/06:00am 18.1 18.0 14.0 77 2.3 SW 7 11 4 6 - - 1.2
24/05:30am 18.4 17.2 14.1 76 2.5 SSE 13 20 7 11 - - 1.2
24/05:00am 18.2 16.7 14.1 77 2.3 SSE 15 22 8 12 - - 1.2
24/04:30am 18.3 17.2 14.2 77 2.4 SSE 13 22 7 12 - - 1.2
24/04:00am 18.6 17.0 13.9 74 2.7 SSE 15 22 8 12 - - 1.2
24/03:30am 18.9 16.8 13.7 72 3.0 SSE 17 26 9 14 - - 1.2
24/03:00am 18.9 17.3 14.0 73 2.8 SSE 15 24 8 13 - - 1.2
24/02:30am 18.9 17.7 14.0 73 2.8 S 13 19 7 10 - - 1.2
24/02:00am 18.9 17.8 14.2 74 2.7 S 13 22 7 12 - - 1.2
24/01:30am 18.9 18.4 13.7 72 3.0 S 9 19 5 10 - - 1.2
24/01:00am 19.2 18.3 13.6 70 3.2 SSE 11 20 6 11 - - 1.2
24/12:30am 19.2 17.9 13.8 71 3.1 S 13 20 7 11 - - 1.2
24/12:00am 19.1 17.5 13.9 72 3.0 S 15 28 8 15 - - 1.2
 
Date/Time
EDT
Temp
°C
App
Temp
°C
Dew
Point
°C
Rel
Hum
%
Delta-T
°C
Wind Press
QNH
hPa
Press
MSL
hPa
Rain since
9am
mm
Dir  Spd
km/h
Gust
km/h
Spd
kts
Gust
kts
23/11:30pm 19.2 17.8 14.5 74 2.7 SSE 15 30 8 16 - - 1.2
23/11:00pm 19.5 16.7 14.3 72 3.0 SSE 22 41 12 22 - - 1.2
23/10:30pm 19.7 17.9 15.6 77 2.4 SSE 19 35 10 19 - - 1.2
23/10:00pm 20.3 17.9 15.5 74 2.8 SSE 22 37 12 20 - - 1.2
23/09:30pm 20.6 19.0 14.0 66 3.8 SSE 15 26 8 14 - - 1.2
23/09:00pm 21.0 19.3 13.7 63 4.2 SSE 15 22 8 12 - - 1.2
23/08:30pm 21.1 20.1 14.7 67 3.8 SSE 13 22 7 12 - - 1.2
23/08:00pm 21.1 20.3 15.0 68 3.6 SE 13 22 7 12 - - 1.2
23/07:30pm 22.7 22.0 15.3 63 4.4 SE 13 22 7 12 - - 1.2
23/07:00pm 23.3 23.2 13.8 55 5.5 WSW 7 11 4 6 - - 1.2
23/06:30pm 23.7 22.6 13.0 51 6.2 NW 11 19 6 10 - - 1.0
23/06:00pm 24.3 22.7 12.9 49 6.6 WNW 13 20 7 11 - - 1.0
23/05:30pm 24.7 22.6 12.3 46 7.1 W 15 19 8 10 - - 1.0
23/05:00pm 25.8 23.6 13.3 46 7.3 SW 17 28 9 15 - - 1.0
23/04:30pm 25.3 24.8 15.0 53 6.2 N 11 17 6 9 - - 1.0
23/04:00pm 24.9 25.8 15.2 54 5.8 NW 4 13 2 7 - - 1.0
23/03:30pm 24.1 22.4 14.8 56 5.5 NNW 17 26 9 14 - - 1.0
23/03:00pm 23.9 23.2 15.4 59 5.1 NNW 13 20 7 11 - - 1.0
23/02:30pm 23.8 22.7 16.3 63 4.6 N 17 26 9 14 - - 1.0
23/02:00pm 23.7 21.7 16.5 64 4.4 NNW 22 37 12 20 - - 1.0
23/01:30pm 24.0 22.4 17.5 67 4.0 NW 22 39 12 21 - - 1.0
23/01:00pm 25.3 24.5 18.0 64 4.6 NW 19 32 10 17 - - 0.4
23/12:30pm 24.8 24.9 19.2 71 3.6 NW 17 26 9 14 - - 0.4
23/12:00pm 24.1 24.6 19.2 74 3.1 NW 15 28 8 15 - - 0.2
23/11:30am 25.1 25.8 18.8 68 4.0 NW 13 20 7 11 - - 0.0
23/11:00am 25.8 26.7 19.2 67 4.2 WNW 13 19 7 10 - - 0.0
23/10:30am 24.3 26.0 19.4 74 3.1 WNW 9 13 5 7 - - 0.0
23/10:00am 24.2 25.2 19.5 75 3.0 NNW 13 19 7 10 - - 0.0
23/09:30am 23.1 24.6 19.7 81 2.2 NW 11 17 6 9 - - 0.0
23/09:00am 22.1 23.5 19.6 86 1.6 NW 11 20 6 11 - - 1.6
23/08:30am 21.7 23.7 20.0 90 1.1 NNW 9 13 5 7 - - 1.6
23/08:02am 21.2 23.8 20.0 93 0.8 NNE 6 11 3 6 - - 1.6
23/08:00am 21.1 23.4 19.9 93 0.8 NNE 7 11 4 6 - - 1.6
23/07:44am 20.9 23.1 19.6 92 0.8 NW 7 9 4 5 - - 1.6
23/07:30am 21.0 23.4 20.0 94 0.6 NNW 7 9 4 5 - - 1.6
23/07:00am 20.7 24.1 19.4 92 0.8 CALM 0 0 0 0 - - 1.4
23/06:30am 20.8 24.0 18.9 89 1.2 CALM 0 4 0 2 - - 1.0
23/06:00am 21.0 24.2 18.8 87 1.4 CALM 0 0 0 0 - - 0.8
23/05:30am 21.2 22.6 18.6 85 1.6 SSW 9 19 5 10 - - 0.8
23/05:00am 21.7 22.2 18.3 81 2.1 WSW 13 20 7 11 - - 0.6
23/04:30am 22.3 22.9 18.5 79 2.4 W 13 24 7 13 - - 0.2
23/04:00am 22.1 21.8 19.5 85 1.7 WSW 20 33 11 18 - - 0.2
23/03:30am 19.6 22.4 17.9 90 1.0 CALM 0 0 0 0 - - 0.0
23/03:00am 19.5 22.1 17.6 89 1.2 CALM 0 0 0 0 - - 0.0
23/02:30am 19.8 22.8 18.5 92 0.8 CALM 0 0 0 0 - - 0.0
23/02:00am 19.5 22.2 17.8 90 1.0 CALM 0 0 0 0 - - 0.0
23/01:30am 19.7 22.5 18.0 90 1.0 CALM 0 0 0 0 - - 0.0
23/01:00am 19.5 22.1 17.5 88 1.2 CALM 0 0 0 0 - - 0.0
23/12:30am 19.8 22.5 17.8 88 1.2 CALM 0 0 0 0 - - 0.0
23/12:00am 20.5 23.3 17.9 85 1.6 CALM 0 0 0 0 - - 0.0
 
Date/Time
EDT
Temp
°C
App
Temp
°C
Dew
Point
°C
Rel
Hum
%
Delta-T
°C
Wind Press
QNH
hPa
Press
MSL
hPa
Rain since
9am
mm
Dir  Spd
km/h
Gust
km/h
Spd
kts
Gust
kts
22/11:30pm 21.0 24.0 18.4 85 1.6 CALM 0 0 0 0 - - 0.0
22/11:00pm 21.0 23.8 18.0 83 1.9 CALM 0 0 0 0 - - 0.0
22/10:30pm 21.5 24.4 18.3 82 2.0 CALM 0 0 0 0 - - 0.0
22/10:00pm 21.7 24.7 18.5 82 2.0 CALM 0 0 0 0 - - 0.0
22/09:30pm 22.2 25.4 18.8 81 2.1 CALM 0 0 0 0 - - 0.0
22/09:00pm 22.7 25.6 18.3 76 2.8 CALM 0 0 0 0 - - 0.0
22/08:30pm 23.7 26.8 18.6 73 3.2 CALM 0 0 0 0 - - 0.0
22/08:00pm 25.5 28.3 18.9 67 4.2 N 2 7 1 4 - - 0.0
22/07:30pm 26.2 28.4 19.6 67 4.3 E 7 9 4 5 - - 0.0
22/07:00pm 26.5 28.7 19.6 66 4.5 NNE 7 13 4 7 - - 0.0

Latest Capital City Observations: Canberra | Sydney | Melbourne | Brisbane | Adelaide | Perth | Hobart | Darwin

Other formats

Comma delimited format used in spreadsheet applications
http://www.bom.gov.au/fwo/IDN60901/IDN60901.94766.axf

JavaScript Object Notation format (JSON) in row-major order
http://www.bom.gov.au/fwo/IDN60901/IDN60901.94766.json

Data quality

Most of these data are generated automatically and are frequently updated. Quality checks on data are not normally performed. It is possible for incorrect values to appear. Refer to information at About Latest Weather Observations and please check the disclaimer before using these data.